Time;durP1;ratioP1;P1;durP2;ratioP2;P2;SDS_P1;SDS_P2;PMS_P1;PMS_P2;Temp;Humidity;BMP_temperature;BMP_pressure;BME280_temperature;BME280_humidity;BME280_pressure;Samples;Min_cycle;Max_cycle;Signal;HPM_P1;HPM_P2
2022/04/02 00:01:57;;;;;;;6.00;3.47;;;;;;;;;;5068381;28;20488;-55
2022/04/02 00:04:23;;;;;;;8.13;3.17;;;;;;;;;;5069915;28;20218;-57
2022/04/02 00:06:49;;;;;;;4.87;2.50;;;5.60;1.00;;;;;;5067274;28;20507;-56
2022/04/02 00:09:15;;;;;;;9.43;3.40;;;5.50;1.00;;;;;;5067249;28;20461;-56
2022/04/02 00:11:40;;;;;;;6.13;3.00;;;5.50;1.00;;;;;;5065579;28;20716;-56
2022/04/02 00:14:06;;;;;;;8.00;3.60;;;5.40;1.00;;;;;;5067773;28;20219;-57
2022/04/02 00:16:31;;;;;;;6.67;2.20;;;5.40;1.00;;;;;;5068163;28;20266;-60
2022/04/02 00:18:57;;;;;;;5.80;2.80;;;5.30;1.00;;;;;;5069264;28;20218;-58
2022/04/02 00:21:22;;;;;;;5.27;2.70;;;5.10;1.00;;;;;;5066870;28;20189;-58
2022/04/02 00:23:48;;;;;;;6.77;3.00;;;;;;;;;;5070458;28;20191;-56
2022/04/02 00:26:17;;;;;;;4.37;3.00;;;5.20;1.00;;;;;;5068712;28;20191;-56
2022/04/02 00:28:43;;;;;;;6.47;2.73;;;5.20;1.00;;;;;;5069909;28;20988;-55
2022/04/02 00:31:12;;;;;;;10.83;2.57;;;5.20;1.00;;;;;;5068391;28;20465;-57
2022/04/02 00:33:38;;;;;;;7.27;2.73;;;5.10;1.00;;;;;;5068182;28;20962;-55
2022/04/02 00:36:07;;;;;;;9.80;3.20;;;5.00;1.00;;;;;;5068019;28;20437;-58
2022/04/02 00:38:32;;;;;;;13.93;3.30;;;5.00;1.00;;;;;;5064509;28;20505;-55
2022/04/02 00:40:58;;;;;;;7.20;3.93;;;5.00;1.00;;;;;;5068571;28;20445;-56
2022/04/02 00:43:32;;;;;;;10.03;3.30;;;4.90;1.00;;;;;;5061970;28;20180;-57
2022/04/02 00:46:00;;;;;;;5.67;2.90;;;4.90;1.00;;;;;;5066465;28;20444;-56
2022/04/02 00:48:27;;;;;;;6.30;3.00;;;5.00;1.00;;;;;;5069463;28;20453;-57
2022/04/02 00:50:55;;;;;;;9.77;3.40;;;5.00;1.00;;;;;;5067297;28;20473;-58
2022/04/02 00:53:28;;;;;;;11.83;3.60;;;5.10;1.00;;;;;;5068402;28;20558;-55
2022/04/02 00:55:54;;;;;;;4.40;3.17;;;5.10;1.00;;;;;;5067654;28;20818;-57
2022/04/02 00:58:20;;;;;;;5.20;3.20;;;5.20;1.00;;;;;;5067890;28;20444;-55
2022/04/02 01:00:46;;;;;;;6.03;3.20;;;5.10;1.00;;;;;;5069039;28;20976;-56
2022/04/02 01:03:13;;;;;;;4.70;3.00;;;4.90;1.00;;;;;;5069069;28;20187;-56
2022/04/02 01:05:39;;;;;;;5.53;3.17;;;4.90;1.00;;;;;;5067043;28;20503;-55
2022/04/02 01:08:05;;;;;;;6.03;2.90;;;4.90;1.00;;;;;;5064873;28;20488;-56
2022/04/02 01:10:32;;;;;;;6.13;2.77;;;4.90;1.00;;;;;;5065754;28;20483;-56
2022/04/02 01:12:59;;;;;;;7.00;2.80;;;4.50;1.00;;;;;;5066111;28;20454;-55
2022/04/02 01:15:28;;;;;;;3.50;2.57;;;4.60;1.00;;;;;;5066733;28;20446;-55
2022/04/02 01:17:54;;;;;;;4.77;2.90;;;4.60;1.00;;;;;;5068978;28;20441;-56
2022/04/02 01:20:20;;;;;;;3.10;2.80;;;4.60;1.00;;;;;;5069718;28;20457;-56
2022/04/02 01:22:48;;;;;;;3.23;2.57;;;4.60;1.00;;;;;;5072484;28;20183;-57
2022/04/02 01:25:15;;;;;;;4.67;3.43;;;4.60;1.00;;;;;;5071493;28;20540;-55
2022/04/02 01:27:41;;;;;;;7.07;2.57;;;4.50;1.00;;;;;;5072011;28;20507;-55
2022/04/02 01:30:07;;;;;;;4.33;3.07;;;4.30;1.00;;;;;;5068443;28;20449;-56
2022/04/02 01:32:33;;;;;;;5.90;3.03;;;4.20;1.00;;;;;;5072508;28;20445;-58
2022/04/02 01:34:59;;;;;;;5.80;3.10;;;4.10;1.00;;;;;;5070175;28;20441;-55
2022/04/02 01:37:25;;;;;;;5.17;3.87;;;4.10;1.00;;;;;;5073435;28;20266;-56
2022/04/02 01:39:51;;;;;;;3.50;2.90;;;4.10;1.00;;;;;;5070093;28;20191;-57
2022/04/02 01:42:20;;;;;;;3.93;3.40;;;4.30;1.00;;;;;;5070361;28;20194;-57
2022/04/02 01:44:51;;;;;;;5.30;3.67;;;4.20;1.00;;;;;;5067958;28;20484;-56
2022/04/02 01:47:18;;;;;;;8.20;3.60;;;4.20;1.00;;;;;;5068782;28;20534;-56
2022/04/02 01:49:44;;;;;;;5.47;3.17;;;4.00;1.00;;;;;;5070776;28;20445;-55
2022/04/02 01:52:10;;;;;;;6.60;3.27;;;3.90;1.00;;;;;;5067621;28;20476;-56
2022/04/02 01:54:35;;;;;;;5.47;3.20;;;3.90;1.00;;;;;;5071878;28;20190;-55
2022/04/02 01:57:01;;;;;;;8.13;3.37;;;4.00;1.00;;;;;;5070544;28;20457;-56
2022/04/02 01:59:27;;;;;;;4.23;3.50;;;4.00;1.00;;;;;;5070438;28;20192;-57
2022/04/02 02:01:52;;;;;;;5.73;3.27;;;4.00;1.00;;;;;;5070629;28;20273;-57
2022/04/02 02:04:18;;;;;;;4.67;3.60;;;4.10;1.00;;;;;;5068389;28;20649;-56
2022/04/02 02:06:45;;;;;;;4.90;3.00;;;4.10;1.00;;;;;;5061648;28;20195;-56
2022/04/02 02:09:10;;;;;;;4.70;2.87;;;4.10;1.00;;;;;;5062594;28;20231;-56
2022/04/02 02:11:36;;;;;;;5.60;2.20;;;;;;;;;;5066257;28;20507;-56
2022/04/02 02:14:02;;;;;;;4.77;2.80;;;4.00;1.00;;;;;;5070114;28;20183;-56
2022/04/02 02:16:28;;;;;;;6.73;3.07;;;;;;;;;;5071321;28;20553;-55
2022/04/02 02:18:54;;;;;;;3.43;2.87;;;3.90;1.00;;;;;;5070463;28;20649;-56
2022/04/02 02:21:19;;;;;;;7.77;3.40;;;3.80;1.00;;;;;;5068928;28;20492;-57
2022/04/02 02:23:45;;;;;;;4.07;2.73;;;3.80;1.00;;;;;;5071354;28;20205;-56
2022/04/02 02:26:10;;;;;;;6.80;2.50;;;3.80;1.00;;;;;;5069200;28;20187;-56
2022/04/02 02:28:36;;;;;;;5.17;3.43;;;3.70;1.00;;;;;;5069267;28;20195;-56
2022/04/02 02:31:02;;;;;;;3.70;3.10;;;3.70;1.00;;;;;;5069992;28;20201;-56
2022/04/02 02:36:11;;;;;;;4.00;3.03;;;3.60;1.00;;;;;;5068381;28;20820;-55
2022/04/02 02:38:37;;;;;;;3.07;2.50;;;;;;;;;;5063928;28;20477;-56
2022/04/02 02:41:07;;;;;;;5.77;2.57;;;3.60;1.00;;;;;;5065608;28;20191;-56
2022/04/02 02:43:32;;;;;;;4.07;2.90;;;3.70;1.00;;;;;;5066561;28;21032;-56
2022/04/02 02:45:58;;;;;;;3.50;2.63;;;3.80;1.00;;;;;;5071150;28;20438;-56
2022/04/02 02:48:24;;;;;;;4.23;2.80;;;3.70;1.00;;;;;;5070225;28;20190;-56
2022/04/02 02:50:49;;;;;;;7.57;2.50;;;3.80;1.00;;;;;;5067277;28;20472;-56
2022/04/02 02:53:15;;;;;;;3.80;2.80;;;3.90;1.00;;;;;;5068561;28;20195;-56
2022/04/02 02:55:41;;;;;;;9.30;4.10;;;3.80;1.00;;;;;;5070946;28;20179;-54
2022/04/02 02:58:08;;;;;;;6.10;3.03;;;3.70;1.00;;;;;;5070946;28;20195;-55
2022/04/02 03:00:33;;;;;;;4.27;2.97;;;3.60;1.00;;;;;;5070539;28;20448;-58
2022/04/02 03:02:59;;;;;;;6.67;2.50;;;;;;;;;;5067634;28;20457;-57
2022/04/02 03:05:25;;;;;;;3.87;3.10;;;3.20;1.00;;;;;;5069792;28;20245;-55
2022/04/02 03:07:51;;;;;;;3.10;2.60;;;3.20;1.00;;;;;;5063757;28;20807;-56
2022/04/02 03:10:18;;;;;;;5.27;2.80;;;3.10;1.00;;;;;;5066639;28;20265;-55
2022/04/02 03:12:46;;;;;;;2.77;2.57;;;3.10;1.00;;;;;;5066840;28;20249;-56
2022/04/02 03:15:12;;;;;;;4.50;3.20;;;3.00;1.00;;;;;;5067919;28;20468;-56
2022/04/02 03:17:38;;;;;;;4.33;2.87;;;3.00;1.00;;;;;;5068824;28;20445;-55
2022/04/02 03:20:05;;;;;;;4.63;2.93;;;3.00;1.00;;;;;;5069030;28;20559;-55
2022/04/02 03:22:35;;;;;;;4.33;2.23;;;3.10;1.00;;;;;;5064728;28;20446;-55
2022/04/02 03:25:02;;;;;;;18.30;2.90;;;2.90;1.00;;;;;;5070984;28;20511;-58
2022/04/02 03:27:28;;;;;;;4.13;2.50;;;;;;;;;;5069189;28;20442;-56
2022/04/02 03:29:54;;;;;;;4.60;2.90;;;2.80;1.00;;;;;;5064590;28;20453;-56
2022/04/02 03:32:19;;;;;;;4.13;2.67;;;2.80;1.00;;;;;;5069041;28;20982;-56
2022/04/02 03:34:45;;;;;;;6.47;3.40;;;2.70;1.00;;;;;;5068915;28;20232;-55
2022/04/02 03:37:10;;;;;;;3.50;2.50;;;2.60;1.00;;;;;;5070198;28;20225;-56
2022/04/02 03:39:36;;;;;;;3.03;2.50;;;2.50;1.00;;;;;;5065218;28;20518;-55
2022/04/02 03:42:04;;;;;;;5.30;3.00;;;2.60;1.00;;;;;;5069127;28;20210;-56
2022/04/02 03:44:29;;;;;;;3.87;3.00;;;2.60;1.00;;;;;;5067198;28;20191;-55
2022/04/02 03:47:10;;;;;;;6.90;2.43;;;2.60;1.00;;;;;;5068991;28;20448;-55
2022/04/02 03:49:46;;;;;;;3.97;2.53;;;2.50;1.00;;;;;;5067352;28;20517;-58
2022/04/02 03:52:12;;;;;;;3.43;2.33;;;2.40;1.00;;;;;;5064381;28;20465;-55
2022/04/02 03:54:38;;;;;;;2.70;2.37;;;2.40;1.00;;;;;;5068547;28;20526;-56
2022/04/02 03:57:05;;;;;;;3.93;3.20;;;2.30;1.00;;;;;;5069403;28;20453;-57
2022/04/02 03:59:32;;;;;;;2.80;1.93;;;2.30;1.00;;;;;;5069496;28;20448;-57
2022/04/02 04:01:58;;;;;;;3.03;1.90;;;2.20;1.00;;;;;;5067985;28;20858;-57
2022/04/02 04:04:24;;;;;;;2.63;1.90;;;2.20;1.00;;;;;;5069204;28;20457;-57
2022/04/02 04:06:51;;;;;;;4.13;3.30;;;2.20;1.00;;;;;;5070538;28;20442;-55
2022/04/02 04:09:17;;;;;;;4.70;2.73;;;2.30;1.00;;;;;;5068267;28;20984;-55
2022/04/02 04:11:43;;;;;;;3.57;2.50;;;2.30;1.00;;;;;;5065182;28;20482;-54
2022/04/02 04:14:09;;;;;;;1.90;1.80;;;2.30;1.00;;;;;;5064153;28;20187;-55
2022/04/02 04:16:35;;;;;;;2.90;2.10;;;2.30;1.00;;;;;;5069017;28;20187;-57
2022/04/02 04:19:01;;;;;;;2.70;2.03;;;2.30;1.00;;;;;;5069145;28;20986;-55
2022/04/02 04:21:26;;;;;;;3.53;2.40;;;;;;;;;;5068524;28;20450;-56
2022/04/02 04:23:52;;;;;;;4.83;2.60;;;2.10;1.00;;;;;;5068283;28;20199;-56
2022/04/02 04:26:18;;;;;;;3.60;2.07;;;2.00;1.00;;;;;;5067327;28;20500;-56
2022/04/02 04:28:44;;;;;;;5.00;2.70;;;;;;;;;;5067184;28;20200;-55
2022/04/02 04:31:10;;;;;;;4.70;2.70;;;2.30;1.00;;;;;;5067500;28;20255;-55
2022/04/02 04:33:37;;;;;;;3.70;2.17;;;2.30;1.00;;;;;;5066392;28;20990;-55
2022/04/02 04:36:06;;;;;;;3.73;2.47;;;2.30;1.00;;;;;;5068677;28;20183;-55
2022/04/02 04:38:32;;;;;;;6.00;3.00;;;2.30;1.00;;;;;;5065079;28;20481;-56
2022/04/02 04:40:59;;;;;;;2.57;2.37;;;2.30;1.00;;;;;;5063280;28;20579;-55
2022/04/02 04:43:24;;;;;;;3.57;2.30;;;2.20;1.00;;;;;;5063772;28;20446;-57
2022/04/02 04:45:50;;;;;;;4.00;1.83;;;2.10;1.00;;;;;;5068337;28;20486;-55
2022/04/02 04:48:16;;;;;;;6.77;3.17;;;2.20;1.00;;;;;;5068880;28;20473;-56
2022/04/02 04:50:41;;;;;;;3.30;2.97;;;2.20;1.00;;;;;;5065435;28;20206;-56
2022/04/02 04:53:07;;;;;;;5.53;2.70;;;2.20;1.00;;;;;;5068014;28;20222;-55
2022/04/02 04:55:32;;;;;;;3.50;2.53;;;2.10;1.00;;;;;;5064482;28;20203;-56
2022/04/02 04:57:58;;;;;;;2.63;2.23;;;2.00;1.00;;;;;;5068648;28;20258;-56
2022/04/02 05:00:23;;;;;;;3.07;2.40;;;2.10;1.00;;;;;;5032343;28;20186;-55
2022/04/02 05:02:49;;;;;;;3.50;2.83;;;2.20;1.00;;;;;;5067927;28;20191;-57
2022/04/02 05:05:14;;;;;;;3.80;2.70;;;2.30;1.00;;;;;;5066034;28;20233;-55
2022/04/02 05:07:41;;;;;;;4.07;2.60;;;2.10;1.00;;;;;;5068266;28;20267;-55
2022/04/02 05:10:08;;;;;;;4.97;3.03;;;2.20;1.00;;;;;;5065547;28;20676;-56
2022/04/02 05:12:34;;;;;;;3.00;2.10;;;2.30;1.00;;;;;;5067997;28;20465;-55
2022/04/02 05:15:00;;;;;;;5.20;3.23;;;;;;;;;;5069169;28;20938;-57
2022/04/02 05:17:25;;;;;;;4.13;2.20;;;2.60;1.00;;;;;;5065596;28;20453;-56
2022/04/02 05:19:51;;;;;;;4.27;2.10;;;2.60;1.00;;;;;;5051600;28;20467;-56
2022/04/02 05:22:17;;;;;;;4.67;2.33;;;;;;;;;;5066617;28;20265;-56
2022/04/02 05:24:42;;;;;;;6.30;2.60;;;2.60;1.00;;;;;;5067449;28;20218;-55
2022/04/02 05:27:09;;;;;;;4.20;3.33;;;2.70;1.00;;;;;;5067891;28;20455;-56
2022/04/02 05:29:35;;;;;;;2.50;2.27;;;2.80;1.00;;;;;;5068148;28;20708;-56
2022/04/02 05:32:00;;;;;;;5.67;2.40;;;2.80;1.00;;;;;;5068618;28;20563;-56
2022/04/02 05:34:26;;;;;;;3.10;2.30;;;2.90;1.00;;;;;;5068356;28;20461;-55
2022/04/02 05:36:52;;;;;;;3.67;2.30;;;2.90;1.00;;;;;;5068630;28;20192;-55
2022/04/02 05:39:17;;;;;;;5.23;2.87;;;2.90;1.00;;;;;;5068809;28;20171;-56
2022/04/02 05:41:43;;;;;;;4.70;2.70;;;2.90;1.00;;;;;;5068693;28;20542;-56
2022/04/02 05:44:09;;;;;;;3.27;2.80;;;2.90;1.00;;;;;;5067544;28;20175;-55
2022/04/02 05:46:35;;;;;;;5.07;2.47;;;3.00;1.00;;;;;;5069525;28;20961;-57
2022/04/02 05:49:00;;;;;;;3.00;2.40;;;3.30;1.00;;;;;;5067528;28;20197;-56
2022/04/02 05:51:26;;;;;;;2.57;2.03;;;;;;;;;;5066487;28;20859;-56
2022/04/02 05:53:52;;;;;;;5.53;2.87;;;3.20;1.00;;;;;;5067276;28;20526;-56
2022/04/02 05:56:18;;;;;;;2.30;1.83;;;3.10;1.00;;;;;;5050116;28;20448;-57
2022/04/02 05:58:44;;;;;;;3.03;2.53;;;3.10;1.00;;;;;;5064782;28;20203;-59
2022/04/02 06:01:10;;;;;;;4.97;3.10;;;2.70;1.00;;;;;;5064889;28;20445;-56
2022/04/02 06:03:36;;;;;;;6.00;2.60;;;2.80;1.00;;;;;;5070611;28;20571;-55
2022/04/02 06:06:02;;;;;;;3.03;2.60;;;3.00;1.00;;;;;;5071825;28;20296;-56
2022/04/02 06:08:27;;;;;;;4.20;2.40;;;3.20;1.00;;;;;;5071220;28;20542;-56
2022/04/02 06:10:54;;;;;;;5.63;3.07;;;3.20;1.00;;;;;;5071150;28;20200;-58
2022/04/02 06:13:20;;;;;;;3.77;3.13;;;;;;;;;;5071710;28;20180;-57
2022/04/02 06:15:45;;;;;;;4.10;2.67;;;;;;;;;;5071743;28;20448;-55
2022/04/02 06:18:12;;;;;;;5.67;3.13;;;3.30;1.00;;;;;;5068392;28;20445;-55
2022/04/02 06:20:38;;;;;;;3.77;2.40;;;3.50;1.00;;;;;;5068797;28;20444;-56
2022/04/02 06:23:04;;;;;;;6.43;2.70;;;3.50;1.00;;;;;;5069044;28;20446;-55
2022/04/02 06:25:29;;;;;;;6.77;4.03;;;3.50;1.00;;;;;;5071813;28;20187;-56
2022/04/02 06:27:55;;;;;;;5.00;3.70;;;3.50;1.00;;;;;;5051325;28;20172;-57
2022/04/02 06:30:21;;;;;;;8.60;3.07;;;3.50;1.00;;;;;;5071098;28;20175;-57
2022/04/02 06:32:46;;;;;;;4.33;2.50;;;3.70;1.00;;;;;;5071868;28;20447;-56
2022/04/02 06:35:12;;;;;;;3.87;3.27;;;3.60;1.00;;;;;;5071624;28;20183;-55
2022/04/02 06:37:39;;;;;;;4.30;3.43;;;3.60;1.00;;;;;;5071776;28;20187;-57
2022/04/02 06:40:07;;;;;;;5.70;3.07;;;3.50;1.00;;;;;;5071347;28;20179;-57
2022/04/02 06:42:33;;;;;;;3.83;2.90;;;3.60;1.00;;;;;;5071216;28;20448;-57
2022/04/02 06:44:58;;;;;;;4.63;3.40;;;3.60;1.00;;;;;;5071420;28;20552;-57
2022/04/02 06:47:26;;;;;;;7.23;5.60;;;3.50;1.00;;;;;;5070160;28;20821;-56
2022/04/02 06:49:51;;;;;;;4.17;3.17;;;3.50;1.00;;;;;;5070690;28;20187;-56
2022/04/02 06:52:17;;;;;;;5.40;3.93;;;3.40;1.00;;;;;;5070756;28;20488;-56
2022/04/02 06:54:42;;;;;;;9.40;4.30;;;3.70;1.00;;;;;;5070575;28;20175;-57
2022/04/02 06:57:08;;;;;;;4.70;3.57;;;4.30;1.00;;;;;;5069463;28;20218;-54
2022/04/02 06:59:33;;;;;;;4.40;2.10;;;4.50;1.00;;;;;;5069094;28;20238;-54
2022/04/02 07:01:59;;;;;;;4.70;3.20;;;4.50;1.00;;;;;;5071197;28;20179;-57
2022/04/02 07:04:24;;;;;;;4.37;3.57;;;4.30;1.00;;;;;;5070103;28;20542;-56
2022/04/02 07:06:50;;;;;;;7.27;6.53;;;4.20;1.00;;;;;;5071781;28;20194;-56
2022/04/02 07:09:18;;;;;;;7.00;3.50;;;4.20;1.00;;;;;;5071734;28;20222;-55
2022/04/02 07:11:44;;;;;;;7.40;4.60;;;4.30;1.00;;;;;;5071738;28;20772;-56
2022/04/02 07:14:11;;;;;;;6.53;3.77;;;4.50;1.00;;;;;;5071262;28;20434;-55
2022/04/02 07:16:37;;;;;;;5.97;3.57;;;4.40;1.00;;;;;;5071231;28;20433;-55
2022/04/02 07:19:03;;;;;;;6.10;3.93;;;;;;;;;;5072665;28;20437;-55
2022/04/02 07:21:29;;;;;;;5.60;3.00;;;4.40;1.00;;;;;;5073818;28;20440;-56
2022/04/02 07:23:56;;;;;;;6.23;4.20;;;4.70;1.00;;;;;;5071482;28;20434;-54
2022/04/02 07:26:22;;;;;;;7.60;3.40;;;;;;;;;;5071583;28;20446;-58
2022/04/02 07:28:49;;;;;;;4.20;2.70;;;5.00;1.00;;;;;;5071435;28;20495;-57
2022/04/02 07:31:15;;;;;;;3.97;2.60;;;5.00;1.00;;;;;;5071373;28;20488;-55
2022/04/02 07:33:41;;;;;;;3.33;3.00;;;;;;;;;;5071365;28;20993;-56
2022/04/02 07:36:19;;;;;;;7.10;3.20;;;4.70;1.00;;;;;;5071491;28;20215;-55
2022/04/02 07:38:56;;;;;;;4.63;2.90;;;4.50;1.00;;;;;;5071145;28;20437;-56
2022/04/02 07:41:31;;;;;;;5.33;2.70;;;4.50;1.00;;;;;;5071005;28;20453;-57
2022/04/02 07:44:11;;;;;;;5.90;3.27;;;4.50;1.00;;;;;;5071160;28;20463;-54
2022/04/02 07:46:42;;;;;;;4.47;2.77;;;4.20;1.00;;;;;;5070986;28;21006;-54
2022/04/02 07:49:11;;;;;;;6.30;3.27;;;6.30;1.00;;;;;;5070488;28;20445;-57
2022/04/02 07:51:39;;;;;;;5.30;3.17;;;4.40;1.00;;;;;;5070378;28;20500;-57
2022/04/02 07:54:07;;;;;;;3.20;2.57;;;4.70;1.00;;;;;;5068078;28;20775;-55
2022/04/02 07:56:43;;;;;;;5.83;2.97;;;4.80;1.00;;;;;;5070833;28;20446;-54
2022/04/02 07:59:19;;;;;;;4.40;3.07;;;4.80;1.00;;;;;;5071068;28;20430;-55
2022/04/02 08:01:45;;;;;;;6.33;4.17;;;4.80;1.00;;;;;;5070822;28;20521;-55
2022/04/02 08:04:12;;;;;;;3.83;2.77;;;4.90;1.00;;;;;;5072976;28;20452;-56
2022/04/02 08:06:39;;;;;;;3.40;2.57;;;5.00;1.00;;;;;;5073374;28;20445;-56
2022/04/02 08:09:07;;;;;;;6.23;2.60;;;5.00;1.00;;;;;;5052309;28;20465;-55
2022/04/02 08:11:37;;;;;;;6.67;2.83;;;4.90;1.00;;;;;;5072152;28;20966;-55
2022/04/02 08:14:02;;;;;;;4.07;2.87;;;4.70;1.00;;;;;;5070259;28;20445;-55
2022/04/02 08:16:28;;;;;;;15.90;4.43;;;4.80;1.00;;;;;;5070553;28;20826;-57
2022/04/02 08:18:57;;;;;;;5.40;3.40;;;4.80;1.00;;;;;;5070542;28;20731;-55
2022/04/02 08:21:22;;;;;;;10.73;4.47;;;5.20;1.00;;;;;;5069635;28;20241;-55
2022/04/02 08:23:48;;;;;;;4.27;3.07;;;5.50;1.00;;;;;;5070772;28;20422;-57
2022/04/02 08:26:16;;;;;;;4.13;2.80;;;5.50;1.00;;;;;;5069754;28;20213;-57
2022/04/02 08:29:20;;;;;;;5.50;2.90;;;5.70;1.00;;;;;;5070592;28;20604;-57
2022/04/02 08:31:59;;;;;;;4.70;3.33;;;6.00;1.00;;;;;;5067129;28;20488;-56
2022/04/02 08:34:39;;;;;;;4.90;2.80;;;5.40;1.00;;;;;;5070333;28;20513;-54
2022/04/02 08:37:08;;;;;;;3.27;2.17;;;5.40;1.00;;;;;;5070111;28;20440;-56
2022/04/02 08:40:03;;;;;;;3.10;2.47;;;5.30;1.00;;;;;;5070307;28;20472;-55
2022/04/02 08:42:57;;;;;;;3.30;2.37;;;5.60;1.00;;;;;;5070002;28;20434;-55
2022/04/02 08:45:32;;;;;;;5.70;3.20;;;5.60;1.00;;;;;;5070099;28;20826;-55
2022/04/02 08:48:00;;;;;;;3.00;2.70;;;5.40;1.00;;;;;;5070381;28;21009;-54
2022/04/02 08:50:30;;;;;;;3.93;2.73;;;5.30;1.00;;;;;;5070457;28;21532;-54
2022/04/02 08:53:04;;;;;;;3.30;2.67;;;5.30;1.00;;;;;;5070528;28;20430;-57
2022/04/02 08:55:44;;;;;;;10.27;3.10;;;5.30;1.00;;;;;;5070345;28;20831;-58
2022/04/02 08:58:19;;;;;;;4.27;2.70;;;5.30;1.00;;;;;;5070293;28;20433;-55
2022/04/02 09:01:09;;;;;;;4.30;2.77;;;5.20;1.00;;;;;;5070712;28;20522;-56
2022/04/02 09:03:57;;;;;;;4.30;2.37;;;5.20;1.00;;;;;;5069509;28;20441;-55
2022/04/02 09:07:10;;;;;;;2.50;1.53;;;5.30;1.00;;;;;;5070503;28;20944;-58
2022/04/02 09:09:58;;;;;;;3.13;2.20;;;5.10;1.00;;;;;;4968721;28;20469;-55
2022/04/02 09:12:34;;;;;;;5.67;1.67;;;5.30;1.00;;;;;;4968730;28;20531;-56
2022/04/02 09:15:17;;;;;;;3.77;3.10;;;5.20;1.00;;;;;;5044363;28;20449;-55
2022/04/02 09:18:12;;;;;;;2.20;1.70;;;5.30;1.00;;;;;;5069974;28;20460;-54
2022/04/02 09:20:54;;;;;;;2.43;2.23;;;5.30;1.00;;;;;;5070027;28;20957;-58
2022/04/02 09:24:05;;;;;;;5.07;2.77;;;5.70;1.00;;;;;;5069933;28;20437;-57
2022/04/02 09:26:54;;;;;;;3.57;2.53;;;5.90;1.00;;;;;;4967857;28;20457;-56
2022/04/02 09:29:28;;;;;;;3.77;2.80;;;6.10;1.00;;;;;;4968389;28;20509;-55
2022/04/02 09:32:21;;;;;;;3.80;2.53;;;6.10;1.00;;;;;;5042049;28;20583;-56
2022/04/02 09:35:26;;;;;;;3.90;2.03;;;5.60;1.00;;;;;;5066883;28;20445;-55
2022/04/02 09:38:12;;;;;;;3.10;2.20;;;5.60;1.00;;;;;;5068652;28;20791;-53
2022/04/02 09:40:48;;;;;;;4.30;2.70;;;5.60;1.00;;;;;;5073308;28;20441;-56
2022/04/02 09:43:31;;;;;;;3.27;2.97;;;5.70;1.00;;;;;;5073654;28;20506;-57
2022/04/02 09:46:06;;;;;;;3.13;2.77;;;5.60;1.00;;;;;;5073543;28;20502;-56
2022/04/02 09:48:47;;;;;;;2.37;2.17;;;5.80;1.00;;;;;;5072696;28;20445;-54
2022/04/02 09:51:19;;;;;;;5.93;2.90;;;5.90;1.00;;;;;;5056802;28;20507;-56
2022/04/02 09:54:07;;;;;;;6.43;3.57;;;5.90;1.00;;;;;;5072839;28;20447;-56
2022/04/02 09:56:45;;;;;;;5.37;2.90;;;6.10;1.00;;;;;;5072942;28;20453;-57
2022/04/02 09:59:23;;;;;;;5.07;2.70;;;6.10;1.00;;;;;;5072797;28;22003;-57
2022/04/02 10:02:01;;;;;;;5.80;3.70;;;6.40;1.00;;;;;;5054472;28;20815;-55
2022/04/02 10:04:52;;;;;;;6.20;4.40;;;6.60;1.00;;;;;;5072915;28;20455;-56
2022/04/02 10:07:40;;;;;;;5.30;2.80;;;6.40;1.00;;;;;;5072602;28;20516;-56
2022/04/02 10:10:07;;;;;;;5.83;3.30;;;6.80;1.00;;;;;;5072226;28;20480;-55
2022/04/02 10:12:36;;;;;;;3.20;2.50;;;6.50;1.00;;;;;;5072271;28;20476;-57
2022/04/02 10:15:03;;;;;;;4.90;2.30;;;6.70;1.00;;;;;;5072544;28;20796;-55
2022/04/02 10:17:31;;;;;;;1.97;1.77;;;6.70;1.00;;;;;;5072144;28;20444;-57
2022/04/02 10:19:58;;;;;;;7.53;3.67;;;6.70;1.00;;;;;;5072381;28;20471;-58
2022/04/02 10:22:37;;;;;;;6.07;2.60;;;7.10;1.00;;;;;;5072128;28;20447;-58
2022/04/02 10:25:06;;;;;;;5.63;2.93;;;7.50;1.00;;;;;;5072098;28;20441;-58
2022/04/02 10:27:36;;;;;;;6.17;3.03;;;7.50;1.00;;;;;;5071237;28;20446;-58
2022/04/02 10:30:04;;;;;;;4.83;2.37;;;8.10;1.00;;;;;;5072247;28;20961;-56
2022/04/02 10:32:44;;;;;;;3.47;2.70;;;8.20;1.00;;;;;;5072354;28;20857;-57
2022/04/02 10:35:13;;;;;;;4.63;3.07;;;7.90;1.00;;;;;;5071889;28;20437;-57
2022/04/02 10:37:40;;;;;;;2.77;2.00;;;7.90;1.00;;;;;;5072089;28;20449;-59
2022/04/02 10:40:16;;;;;;;4.43;2.23;;;7.10;1.00;;;;;;5072463;28;20563;-57
2022/04/02 10:42:55;;;;;;;2.30;2.10;;;7.20;1.00;;;;;;5071909;28;20441;-56
2022/04/02 10:45:21;;;;;;;4.07;2.50;;;7.40;1.00;;;;;;5072025;28;20455;-57
2022/04/02 10:48:04;;;;;;;1.93;1.73;;;7.60;1.00;;;;;;5071801;28;20450;-56
2022/04/02 10:50:31;;;;;;;5.23;3.20;;;7.50;1.00;;;;;;5071806;28;20453;-55
2022/04/02 10:53:00;;;;;;;9.23;3.50;;;7.40;1.00;;;;;;5071672;28;20921;-58
2022/04/02 10:55:28;;;;;;;3.87;2.17;;;7.00;1.00;;;;;;5071747;28;20445;-55
2022/04/02 10:57:59;;;;;;;7.63;2.63;;;7.00;1.00;;;;;;5073692;28;20487;-56
2022/04/02 11:00:29;;;;;;;3.67;1.80;;;7.20;1.00;;;;;;5052929;28;20449;-59
2022/04/02 11:03:06;;;;;;;4.33;2.27;;;7.10;1.00;;;;;;5071087;28;20739;-56
2022/04/02 11:05:37;;;;;;;3.17;1.87;;;7.20;1.00;;;;;;5071526;28;20480;-58
2022/04/02 11:08:05;;;;;;;2.33;2.03;;;7.40;1.00;;;;;;5071364;28;20923;-56
2022/04/02 11:10:35;;;;;;;2.93;1.93;;;7.90;1.00;;;;;;5071001;28;20458;-57
2022/04/02 11:13:02;;;;;;;5.13;2.13;;;7.90;1.00;;;;;;5071213;28;20441;-58
2022/04/02 11:15:27;;;;;;;3.53;2.33;;;7.80;1.00;;;;;;5070691;28;20445;-55
2022/04/02 11:17:57;;;;;;;3.83;1.93;;;7.60;1.00;;;;;;5070943;28;20515;-56
2022/04/02 11:20:25;;;;;;;9.50;2.43;;;7.60;1.00;;;;;;5072732;28;20449;-56
2022/04/02 11:22:59;;;;;;;2.90;1.70;;;7.50;1.00;;;;;;5070945;28;20434;-56
2022/04/02 11:25:35;;;;;;;1.23;1.13;;;7.80;1.00;;;;;;5068854;28;20555;-55
2022/04/02 11:28:20;;;;;;;5.20;2.27;;;7.60;1.00;;;;;;5049934;28;20448;-57
2022/04/02 11:30:51;;;;;;;3.77;1.57;;;7.50;1.00;;;;;;5052734;28;20447;-57
2022/04/02 11:33:17;;;;;;;8.00;2.50;;;;;;;;;;5071564;28;20491;-59
2022/04/02 11:35:53;;;;;;;6.03;2.20;;;7.50;1.00;;;;;;5071480;28;20796;-56
2022/04/02 11:38:20;;;;;;;4.60;2.53;;;8.00;1.00;;;;;;5070530;28;20985;-58
2022/04/02 11:41:23;;;;;;;2.60;2.17;;;8.40;1.00;;;;;;5070171;28;20446;-56
2022/04/02 11:43:54;;;;;;;1.97;1.70;;;8.70;1.00;;;;;;5069590;28;20494;-56
2022/04/02 11:46:21;;;;;;;2.80;1.90;;;8.50;1.00;;;;;;5069813;28;20437;-57
2022/04/02 11:48:50;;;;;;;3.07;1.80;;;8.30;1.00;;;;;;5069472;28;20473;-57
2022/04/02 11:51:30;;;;;;;2.33;1.93;;;8.30;1.00;;;;;;5070298;28;20468;-55
2022/04/02 11:54:08;;;;;;;4.30;2.00;;;8.60;1.00;;;;;;5072665;28;20441;-56
2022/04/02 11:56:46;;;;;;;2.23;2.00;;;8.90;1.00;;;;;;5070623;28;20449;-58
2022/04/02 11:59:17;;;;;;;1.50;1.40;;;9.20;1.00;;;;;;5071260;28;20990;-56
2022/04/02 12:01:49;;;;;;;3.70;1.80;;;9.20;1.00;;;;;;5050549;28;20472;-58
2022/04/02 12:04:17;;;;;;;2.40;2.20;;;8.90;1.00;;;;;;5051446;28;20482;-57
2022/04/02 12:06:47;;;;;;;2.63;1.70;;;8.70;1.00;;;;;;5069070;28;20522;-57
2022/04/02 12:09:21;;;;;;;3.20;2.13;;;8.70;1.00;;;;;;5070436;28;21060;-56
2022/04/02 12:11:54;;;;;;;4.07;2.67;;;9.00;1.00;;;;;;5069919;28;20480;-57
2022/04/02 12:14:37;;;;;;;3.13;2.23;;;9.00;1.00;;;;;;5069772;28;20438;-58
2022/04/02 12:17:13;;;;;;;3.73;2.67;;;8.90;1.00;;;;;;5069962;28;20509;-55
2022/04/02 12:19:42;;;;;;;1.70;1.60;;;9.30;1.00;;;;;;5051786;28;20445;-56
2022/04/02 12:22:25;;;;;;;2.93;1.93;;;9.30;1.00;;;;;;5069919;28;20441;-58
2022/04/02 12:24:53;;;;;;;2.43;1.90;;;9.20;1.00;;;;;;5069566;28;20441;-57
2022/04/02 12:27:27;;;;;;;4.07;1.87;;;9.30;1.00;;;;;;5069557;28;20608;-56
2022/04/02 12:29:55;;;;;;;3.37;2.10;;;9.20;1.00;;;;;;5069220;28;20444;-57
2022/04/02 12:32:28;;;;;;;4.77;2.03;;;8.80;1.00;;;;;;5068917;28;20461;-58
2022/04/02 12:34:57;;;;;;;5.40;2.50;;;8.80;1.00;;;;;;5070707;28;20842;-56
2022/04/02 12:37:27;;;;;;;5.57;3.07;;;8.70;1.00;;;;;;5069780;28;20441;-57
2022/04/02 12:39:53;;;;;;;5.13;2.53;;;8.80;1.00;;;;;;5069470;28;20465;-58
2022/04/02 12:42:41;;;;;;;2.77;1.87;;;9.10;1.00;;;;;;5070958;28;20464;-58
2022/04/02 12:45:21;;;;;;;6.83;3.10;;;9.10;1.00;;;;;;5068417;28;21005;-57
2022/04/02 12:48:20;;;;;;;3.90;2.00;;;9.50;1.00;;;;;;5068944;28;20535;-59
2022/04/02 12:50:49;;;;;;;2.80;1.87;;;9.50;1.00;;;;;;5069299;28;20988;-57
2022/04/02 12:53:39;;;;;;;2.37;1.90;;;9.70;1.00;;;;;;5069772;28;20472;-57
2022/04/02 12:56:10;;;;;;;6.27;3.27;;;9.30;1.00;;;;;;5069859;28;20783;-58
2022/04/02 12:58:39;;;;;;;4.50;2.10;;;9.00;1.00;;;;;;5070272;28;20444;-57
2022/04/02 13:01:16;;;;;;;5.23;1.93;;;8.90;1.00;;;;;;5069685;28;20433;-57
2022/04/02 13:04:05;;;;;;;3.03;1.97;;;8.90;1.00;;;;;;5069826;28;20436;-57
2022/04/02 13:06:35;;;;;;;3.23;2.27;;;8.80;1.00;;;;;;5070140;28;20524;-58
2022/04/02 13:09:18;;;;;;;7.80;3.07;;;9.30;1.00;;;;;;5069890;28;20452;-57
2022/04/02 13:11:43;;;;;;;5.47;2.70;;;9.40;1.00;;;;;;5070939;28;20515;-58
2022/04/02 13:14:18;;;;;;;2.00;1.87;;;9.40;1.00;;;;;;5074071;28;20922;-58
2022/04/02 13:16:46;;;;;;;6.27;2.33;;;9.40;1.00;;;;;;5074079;28;20254;-56
2022/04/02 13:22:12;;;;;;;2.13;1.80;;;9.60;1.00;;;;;;5075613;28;20464;-55
2022/04/02 13:25:00;;;;;;;3.33;2.20;;;9.50;1.00;;;;;;5074124;28;20447;-60
2022/04/02 13:27:31;;;;;;;3.67;2.50;;;9.60;1.00;;;;;;5073906;28;20434;-58
2022/04/02 13:30:10;;;;;;;4.60;3.07;;;9.40;1.00;;;;;;5073600;28;21018;-57
2022/04/02 13:33:10;;;;;;;3.37;2.33;;;9.30;1.00;;;;;;5073421;28;20985;-57
2022/04/02 13:35:38;;;;;;;4.23;2.90;;;9.40;1.00;;;;;;5074017;28;20469;-58